sensor_id;sensor_type;location;lat;lon;timestamp;temperature;humidity
11280;DHT22;5696;50.928;6.960;2022-08-21T05:33:56;17.60;99.90
11280;DHT22;5696;50.928;6.960;2022-08-21T05:36:22;17.60;99.90
11280;DHT22;5696;50.928;6.960;2022-08-21T05:38:59;17.70;99.90
11280;DHT22;5696;50.928;6.960;2022-08-21T05:41:25;18.40;99.90
11280;DHT22;5696;50.928;6.960;2022-08-21T05:43:51;19.40;99.90
11280;DHT22;5696;50.928;6.960;2022-08-21T05:46:16;20.20;99.90
11280;DHT22;5696;50.928;6.960;2022-08-21T05:48:42;20.90;99.90
11280;DHT22;5696;50.928;6.960;2022-08-21T05:51:14;21.40;99.90
11280;DHT22;5696;50.928;6.960;2022-08-21T05:53:41;21.80;99.90
11280;DHT22;5696;50.928;6.960;2022-08-21T05:56:08;22.20;99.90
11280;DHT22;5696;50.928;6.960;2022-08-21T05:58:34;22.70;99.90
11280;DHT22;5696;50.928;6.960;2022-08-21T06:01:01;22.90;99.90
11280;DHT22;5696;50.928;6.960;2022-08-21T06:03:31;22.80;99.90
11280;DHT22;5696;50.928;6.960;2022-08-21T06:05:57;23.20;99.90
11280;DHT22;5696;50.928;6.960;2022-08-21T06:08:23;23.40;99.90
11280;DHT22;5696;50.928;6.960;2022-08-21T06:10:51;23.70;99.90
11280;DHT22;5696;50.928;6.960;2022-08-21T06:13:27;23.50;99.90
11280;DHT22;5696;50.928;6.960;2022-08-21T06:16:11;23.10;99.90
11280;DHT22;5696;50.928;6.960;2022-08-21T06:18:37;23.70;99.90
11280;DHT22;5696;50.928;6.960;2022-08-21T06:21:04;24.00;99.90
11280;DHT22;5696;50.928;6.960;2022-08-21T06:23:29;24.40;99.90
11280;DHT22;5696;50.928;6.960;2022-08-21T06:25:55;24.60;99.90
11280;DHT22;5696;50.928;6.960;2022-08-21T06:28:21;24.90;99.90
11280;DHT22;5696;50.928;6.960;2022-08-21T06:30:47;24.90;99.90
11280;DHT22;5696;50.928;6.960;2022-08-21T06:33:13;24.80;99.90
11280;DHT22;5696;50.928;6.960;2022-08-21T06:35:39;25.00;99.90
11280;DHT22;5696;50.928;6.960;2022-08-21T06:38:04;25.30;99.90
11280;DHT22;5696;50.928;6.960;2022-08-21T06:40:30;25.20;99.90
11280;DHT22;5696;50.928;6.960;2022-08-21T06:42:57;25.30;99.90
11280;DHT22;5696;50.928;6.960;2022-08-21T06:45:23;25.40;99.90
11280;DHT22;5696;50.928;6.960;2022-08-21T06:47:49;24.50;99.90
11280;DHT22;5696;50.928;6.960;2022-08-21T06:50:15;24.80;99.90
11280;DHT22;5696;50.928;6.960;2022-08-21T06:52:41;25.40;99.90
11280;DHT22;5696;50.928;6.960;2022-08-21T06:55:08;25.80;99.90
11280;DHT22;5696;50.928;6.960;2022-08-21T06:57:34;25.60;99.50
11280;DHT22;5696;50.928;6.960;2022-08-21T07:00:01;25.20;97.90
11280;DHT22;5696;50.928;6.960;2022-08-21T07:02:27;25.00;97.30
11280;DHT22;5696;50.928;6.960;2022-08-21T07:04:52;24.10;98.60
11280;DHT22;5696;50.928;6.960;2022-08-21T07:07:18;23.80;99.20
11280;DHT22;5696;50.928;6.960;2022-08-21T07:09:43;24.00;99.60
11280;DHT22;5696;50.928;6.960;2022-08-21T07:12:09;24.20;99.70
11280;DHT22;5696;50.928;6.960;2022-08-21T07:14:35;24.80;98.80
11280;DHT22;5696;50.928;6.960;2022-08-21T07:17:01;24.40;97.90
11280;DHT22;5696;50.928;6.960;2022-08-21T07:19:37;24.00;99.40
11280;DHT22;5696;50.928;6.960;2022-08-21T07:22:02;23.60;99.90
11280;DHT22;5696;50.928;6.960;2022-08-21T07:24:28;23.00;99.90
11280;DHT22;5696;50.928;6.960;2022-08-21T07:26:54;23.00;99.90
11280;DHT22;5696;50.928;6.960;2022-08-21T07:29:20;23.00;99.90
11280;DHT22;5696;50.928;6.960;2022-08-21T07:31:50;22.70;99.90
11280;DHT22;5696;50.928;6.960;2022-08-21T07:34:15;22.30;99.90
11280;DHT22;5696;50.928;6.960;2022-08-21T07:36:41;22.40;99.90
11280;DHT22;5696;50.928;6.960;2022-08-21T07:39:07;22.40;99.90
11280;DHT22;5696;50.928;6.960;2022-08-21T07:41:34;22.30;99.90
11280;DHT22;5696;50.928;6.960;2022-08-21T07:44:00;22.30;99.90
11280;DHT22;5696;50.928;6.960;2022-08-21T07:46:27;22.10;99.90
11280;DHT22;5696;50.928;6.960;2022-08-21T07:48:53;22.00;99.90
11280;DHT22;5696;50.928;6.960;2022-08-21T07:51:19;21.80;99.90
11280;DHT22;5696;50.928;6.960;2022-08-21T07:53:53;22.00;99.90
11280;DHT22;5696;50.928;6.960;2022-08-21T07:56:19;22.20;99.90
11280;DHT22;5696;50.928;6.960;2022-08-21T07:58:45;22.40;99.90
11280;DHT22;5696;50.928;6.960;2022-08-21T08:01:11;22.40;99.90
11280;DHT22;5696;50.928;6.960;2022-08-21T08:03:38;22.60;99.90
11280;DHT22;5696;50.928;6.960;2022-08-21T08:06:04;22.60;99.90
11280;DHT22;5696;50.928;6.960;2022-08-21T08:08:31;22.60;99.90
11280;DHT22;5696;50.928;6.960;2022-08-21T08:10:58;22.40;99.90
11280;DHT22;5696;50.928;6.960;2022-08-21T08:13:24;22.40;99.90
11280;DHT22;5696;50.928;6.960;2022-08-21T08:15:50;22.80;99.90
11280;DHT22;5696;50.928;6.960;2022-08-21T08:18:16;23.00;99.90
11280;DHT22;5696;50.928;6.960;2022-08-21T08:20:42;22.80;99.90
11280;DHT22;5696;50.928;6.960;2022-08-21T08:23:10;23.00;99.90
11280;DHT22;5696;50.928;6.960;2022-08-21T08:25:36;22.90;99.90
11280;DHT22;5696;50.928;6.960;2022-08-21T08:28:12;23.10;99.90
11280;DHT22;5696;50.928;6.960;2022-08-21T08:30:37;23.10;99.90
11280;DHT22;5696;50.928;6.960;2022-08-21T08:33:04;23.20;99.90
11280;DHT22;5696;50.928;6.960;2022-08-21T08:35:29;23.40;99.90
11280;DHT22;5696;50.928;6.960;2022-08-21T08:37:55;23.30;99.90
11280;DHT22;5696;50.928;6.960;2022-08-21T08:40:37;23.30;99.90
11280;DHT22;5696;50.928;6.960;2022-08-21T08:43:05;23.70;99.90
11280;DHT22;5696;50.928;6.960;2022-08-21T08:45:34;23.80;99.20
11280;DHT22;5696;50.928;6.960;2022-08-21T08:48:05;23.80;99.20
11280;DHT22;5696;50.928;6.960;2022-08-21T08:50:45;24.10;99.00
11280;DHT22;5696;50.928;6.960;2022-08-21T08:53:45;24.20;98.60
11280;DHT22;5696;50.928;6.960;2022-08-21T08:56:13;24.20;98.00
11280;DHT22;5696;50.928;6.960;2022-08-21T08:58:40;24.30;97.70
11280;DHT22;5696;50.928;6.960;2022-08-21T09:01:16;23.90;97.20
11280;DHT22;5696;50.928;6.960;2022-08-21T09:03:43;23.50;97.90
11280;DHT22;5696;50.928;6.960;2022-08-21T09:06:44;24.00;98.10
11280;DHT22;5696;50.928;6.960;2022-08-21T09:17:24;24.10;97.70
11280;DHT22;5696;50.928;6.960;2022-08-21T09:19:56;24.10;97.40
11280;DHT22;5696;50.928;6.960;2022-08-21T09:27:29;24.20;97.00
11280;DHT22;5696;50.928;6.960;2022-08-21T09:29:56;23.90;96.70
11280;DHT22;5696;50.928;6.960;2022-08-21T09:32:30;23.70;97.20
11280;DHT22;5696;50.928;6.960;2022-08-21T09:35:12;24.00;96.90
11280;DHT22;5696;50.928;6.960;2022-08-21T09:37:51;24.30;96.80
11280;DHT22;5696;50.928;6.960;2022-08-21T09:42:55;24.50;96.30
11280;DHT22;5696;50.928;6.960;2022-08-21T09:45:21;24.50;96.30
11280;DHT22;5696;50.928;6.960;2022-08-21T09:47:46;24.40;96.30
11280;DHT22;5696;50.928;6.960;2022-08-21T09:50:21;24.70;96.10
11280;DHT22;5696;50.928;6.960;2022-08-21T09:52:51;24.70;96.30
11280;DHT22;5696;50.928;6.960;2022-08-21T09:55:23;24.60;95.80
11280;DHT22;5696;50.928;6.960;2022-08-21T09:58:08;24.70;95.30
11280;DHT22;5696;50.928;6.960;2022-08-21T10:00:34;24.80;95.30
11280;DHT22;5696;50.928;6.960;2022-08-21T10:03:18;24.80;95.40
11280;DHT22;5696;50.928;6.960;2022-08-21T10:06:03;25.00;94.90
11280;DHT22;5696;50.928;6.960;2022-08-21T10:08:32;25.10;94.80
11280;DHT22;5696;50.928;6.960;2022-08-21T10:11:15;25.10;94.90
11280;DHT22;5696;50.928;6.960;2022-08-21T10:25:09;24.60;95.10
11280;DHT22;5696;50.928;6.960;2022-08-21T10:30:56;24.60;94.30
11280;DHT22;5696;50.928;6.960;2022-08-21T10:33:39;24.50;94.50
11280;DHT22;5696;50.928;6.960;2022-08-21T10:36:24;24.50;94.60
11280;DHT22;5696;50.928;6.960;2022-08-21T10:39:21;24.80;94.20
11280;DHT22;5696;50.928;6.960;2022-08-21T10:42:28;25.40;93.10
11280;DHT22;5696;50.928;6.960;2022-08-21T10:45:10;25.30;93.00
11280;DHT22;5696;50.928;6.960;2022-08-21T10:47:57;25.60;92.80
11280;DHT22;5696;50.928;6.960;2022-08-21T10:55:26;26.10;91.10
11280;DHT22;5696;50.928;6.960;2022-08-21T11:00:41;25.90;90.60
11280;DHT22;5696;50.928;6.960;2022-08-21T11:05:55;25.80;90.50
11280;DHT22;5696;50.928;6.960;2022-08-21T11:08:28;25.80;90.50
11280;DHT22;5696;50.928;6.960;2022-08-21T11:11:03;25.90;90.10
11280;DHT22;5696;50.928;6.960;2022-08-21T11:13:37;25.90;90.30
11280;DHT22;5696;50.928;6.960;2022-08-21T11:16:14;26.20;89.70
11280;DHT22;5696;50.928;6.960;2022-08-21T11:19:00;26.10;88.90
11280;DHT22;5696;50.928;6.960;2022-08-21T11:21:38;26.10;89.30
11280;DHT22;5696;50.928;6.960;2022-08-21T11:29:31;26.10;87.10
11280;DHT22;5696;50.928;6.960;2022-08-21T11:38:13;26.10;85.10
11280;DHT22;5696;50.928;6.960;2022-08-21T11:48:50;26.50;82.40
11280;DHT22;5696;50.928;6.960;2022-08-21T11:51:24;26.70;81.70
11280;DHT22;5696;50.928;6.960;2022-08-21T11:56:44;26.60;82.20
11280;DHT22;5696;50.928;6.960;2022-08-21T11:59:16;26.20;83.30
11280;DHT22;5696;50.928;6.960;2022-08-21T12:01:46;26.70;81.80
11280;DHT22;5696;50.928;6.960;2022-08-21T12:04:42;26.80;80.90
11280;DHT22;5696;50.928;6.960;2022-08-21T12:07:11;26.50;80.20
11280;DHT22;5696;50.928;6.960;2022-08-21T12:09:38;26.70;81.30
11280;DHT22;5696;50.928;6.960;2022-08-21T12:14:51;27.00;80.10
11280;DHT22;5696;50.928;6.960;2022-08-21T12:17:36;27.10;79.70
11280;DHT22;5696;50.928;6.960;2022-08-21T12:25:38;27.20;78.50
11280;DHT22;5696;50.928;6.960;2022-08-21T12:28:10;27.30;78.50
11280;DHT22;5696;50.928;6.960;2022-08-21T12:30:45;27.40;77.20
11280;DHT22;5696;50.928;6.960;2022-08-21T12:33:38;27.10;75.50
11280;DHT22;5696;50.928;6.960;2022-08-21T12:36:14;27.30;76.10
11280;DHT22;5696;50.928;6.960;2022-08-21T12:39:11;27.40;75.90
11280;DHT22;5696;50.928;6.960;2022-08-21T12:41:56;27.40;75.60
11280;DHT22;5696;50.928;6.960;2022-08-21T12:47:03;27.10;76.80
11280;DHT22;5696;50.928;6.960;2022-08-21T12:49:40;27.10;76.60
11280;DHT22;5696;50.928;6.960;2022-08-21T12:52:14;27.30;75.80
11280;DHT22;5696;50.928;6.960;2022-08-21T12:54:43;26.90;76.60
11280;DHT22;5696;50.928;6.960;2022-08-21T12:57:25;27.10;76.00
11280;DHT22;5696;50.928;6.960;2022-08-21T13:00:04;27.00;76.40
11280;DHT22;5696;50.928;6.960;2022-08-21T13:02:36;27.10;75.60
11280;DHT22;5696;50.928;6.960;2022-08-21T13:05:07;27.00;75.40
11280;DHT22;5696;50.928;6.960;2022-08-21T13:07:35;27.40;75.50
11280;DHT22;5696;50.928;6.960;2022-08-21T13:10:18;27.50;74.50
11280;DHT22;5696;50.928;6.960;2022-08-21T13:12:46;27.40;74.50
11280;DHT22;5696;50.928;6.960;2022-08-21T13:15:14;27.20;75.50
11280;DHT22;5696;50.928;6.960;2022-08-21T13:17:44;27.30;73.90
11280;DHT22;5696;50.928;6.960;2022-08-21T13:20:23;27.60;74.00
11280;DHT22;5696;50.928;6.960;2022-08-21T13:22:50;27.50;74.10
11280;DHT22;5696;50.928;6.960;2022-08-21T13:25:18;27.70;74.40
11280;DHT22;5696;50.928;6.960;2022-08-21T13:27:56;27.80;73.70
11280;DHT22;5696;50.928;6.960;2022-08-21T13:30:22;28.00;72.60
11280;DHT22;5696;50.928;6.960;2022-08-21T13:32:51;27.70;72.60
11280;DHT22;5696;50.928;6.960;2022-08-21T13:35:24;27.80;72.70
11280;DHT22;5696;50.928;6.960;2022-08-21T13:37:51;27.70;72.60
11280;DHT22;5696;50.928;6.960;2022-08-21T13:40:23;27.30;73.20
11280;DHT22;5696;50.928;6.960;2022-08-21T13:42:49;27.40;73.80
11280;DHT22;5696;50.928;6.960;2022-08-21T13:45:27;27.50;72.50
11280;DHT22;5696;50.928;6.960;2022-08-21T13:47:57;27.50;73.90
11280;DHT22;5696;50.928;6.960;2022-08-21T13:50:24;27.50;74.40
11280;DHT22;5696;50.928;6.960;2022-08-21T13:52:57;27.30;73.80
11280;DHT22;5696;50.928;6.960;2022-08-21T13:55:24;27.40;73.90
11280;DHT22;5696;50.928;6.960;2022-08-21T13:58:01;27.30;73.80
11280;DHT22;5696;50.928;6.960;2022-08-21T14:00:29;27.30;73.90
11280;DHT22;5696;50.928;6.960;2022-08-21T14:03:03;27.40;74.90
11280;DHT22;5696;50.928;6.960;2022-08-21T14:05:32;27.30;74.50
11280;DHT22;5696;50.928;6.960;2022-08-21T14:08:12;27.20;74.80
11280;DHT22;5696;50.928;6.960;2022-08-21T14:10:44;26.80;75.50
11280;DHT22;5696;50.928;6.960;2022-08-21T14:16:01;26.90;76.20
11280;DHT22;5696;50.928;6.960;2022-08-21T14:18:28;27.00;75.50
11280;DHT22;5696;50.928;6.960;2022-08-21T14:21:05;26.90;75.20
11280;DHT22;5696;50.928;6.960;2022-08-21T14:23:32;27.10;75.10
11280;DHT22;5696;50.928;6.960;2022-08-21T14:26:03;27.00;74.60
11280;DHT22;5696;50.928;6.960;2022-08-21T14:28:37;26.70;75.90
11280;DHT22;5696;50.928;6.960;2022-08-21T14:31:21;26.80;75.10
11280;DHT22;5696;50.928;6.960;2022-08-21T14:33:48;26.90;75.70
11280;DHT22;5696;50.928;6.960;2022-08-21T14:36:14;26.60;74.70
11280;DHT22;5696;50.928;6.960;2022-08-21T14:38:40;26.50;75.20
11280;DHT22;5696;50.928;6.960;2022-08-21T14:41:18;26.30;75.80
11280;DHT22;5696;50.928;6.960;2022-08-21T14:43:46;26.20;76.00
11280;DHT22;5696;50.928;6.960;2022-08-21T14:46:18;26.10;75.90
11280;DHT22;5696;50.928;6.960;2022-08-21T14:48:45;26.00;76.40
11280;DHT22;5696;50.928;6.960;2022-08-21T14:51:13;25.90;76.50
11280;DHT22;5696;50.928;6.960;2022-08-21T14:53:39;25.90;76.90
11280;DHT22;5696;50.928;6.960;2022-08-21T14:56:05;25.80;75.30
11280;DHT22;5696;50.928;6.960;2022-08-21T14:58:31;25.80;76.00
11280;DHT22;5696;50.928;6.960;2022-08-21T15:00:57;25.80;75.90
11280;DHT22;5696;50.928;6.960;2022-08-21T15:03:25;25.90;75.70
11280;DHT22;5696;50.928;6.960;2022-08-21T15:05:51;25.90;75.60
11280;DHT22;5696;50.928;6.960;2022-08-21T15:08:17;25.90;75.40
11280;DHT22;5696;50.928;6.960;2022-08-21T15:10:44;26.00;75.30
11280;DHT22;5696;50.928;6.960;2022-08-21T15:13:10;26.00;74.40
11280;DHT22;5696;50.928;6.960;2022-08-21T15:15:41;26.10;73.50
11280;DHT22;5696;50.928;6.960;2022-08-21T15:18:07;26.10;73.40
11280;DHT22;5696;50.928;6.960;2022-08-21T15:20:33;25.90;73.50
11280;DHT22;5696;50.928;6.960;2022-08-21T15:22:59;26.00;73.90
11280;DHT22;5696;50.928;6.960;2022-08-21T15:25:25;26.00;74.50
11280;DHT22;5696;50.928;6.960;2022-08-21T15:27:51;26.10;74.20
11280;DHT22;5696;50.928;6.960;2022-08-21T15:30:16;26.20;74.00
11280;DHT22;5696;50.928;6.960;2022-08-21T15:32:42;26.30;74.40
11280;DHT22;5696;50.928;6.960;2022-08-21T15:35:08;26.40;74.40
11280;DHT22;5696;50.928;6.960;2022-08-21T15:37:34;26.40;73.80
11280;DHT22;5696;50.928;6.960;2022-08-21T15:40:10;26.40;73.80
11280;DHT22;5696;50.928;6.960;2022-08-21T15:42:38;26.30;74.30
11280;DHT22;5696;50.928;6.960;2022-08-21T15:45:05;26.10;74.30
11280;DHT22;5696;50.928;6.960;2022-08-21T15:47:33;26.30;73.80
11280;DHT22;5696;50.928;6.960;2022-08-21T15:50:00;26.30;73.50
11280;DHT22;5696;50.928;6.960;2022-08-21T15:52:25;26.20;74.10
11280;DHT22;5696;50.928;6.960;2022-08-21T15:55:01;26.10;74.30
11280;DHT22;5696;50.928;6.960;2022-08-21T15:57:27;26.30;74.20
11280;DHT22;5696;50.928;6.960;2022-08-21T15:59:58;26.30;74.30
11280;DHT22;5696;50.928;6.960;2022-08-21T16:02:31;26.40;74.00
11280;DHT22;5696;50.928;6.960;2022-08-21T16:04:58;26.30;73.90
11280;DHT22;5696;50.928;6.960;2022-08-21T16:07:24;26.30;73.90
11280;DHT22;5696;50.928;6.960;2022-08-21T16:09:50;26.40;73.70
11280;DHT22;5696;50.928;6.960;2022-08-21T16:12:28;26.40;73.90
11280;DHT22;5696;50.928;6.960;2022-08-21T16:14:57;26.60;73.30
11280;DHT22;5696;50.928;6.960;2022-08-21T16:17:30;26.90;73.20
11280;DHT22;5696;50.928;6.960;2022-08-21T16:19:57;26.90;72.50
11280;DHT22;5696;50.928;6.960;2022-08-21T16:22:28;26.80;72.10
11280;DHT22;5696;50.928;6.960;2022-08-21T16:24:54;26.70;72.00
11280;DHT22;5696;50.928;6.960;2022-08-21T16:27:20;26.80;71.80
11280;DHT22;5696;50.928;6.960;2022-08-21T16:29:46;26.70;71.70
11280;DHT22;5696;50.928;6.960;2022-08-21T16:32:12;26.70;71.40
11280;DHT22;5696;50.928;6.960;2022-08-21T16:34:42;26.70;71.60
11280;DHT22;5696;50.928;6.960;2022-08-21T16:37:09;26.90;70.60
11280;DHT22;5696;50.928;6.960;2022-08-21T16:39:34;26.90;70.40
11280;DHT22;5696;50.928;6.960;2022-08-21T16:42:01;26.80;70.40
11280;DHT22;5696;50.928;6.960;2022-08-21T16:44:27;27.00;69.60
11280;DHT22;5696;50.928;6.960;2022-08-21T16:46:52;27.10;69.40
11280;DHT22;5696;50.928;6.960;2022-08-21T16:49:19;27.10;68.80
11280;DHT22;5696;50.928;6.960;2022-08-21T16:51:44;26.80;68.80
11280;DHT22;5696;50.928;6.960;2022-08-21T16:54:11;26.60;69.20
11280;DHT22;5696;50.928;6.960;2022-08-21T16:56:36;26.70;69.30
11280;DHT22;5696;50.928;6.960;2022-08-21T16:59:03;26.50;69.60
11280;DHT22;5696;50.928;6.960;2022-08-21T17:01:31;26.40;70.20
11280;DHT22;5696;50.928;6.960;2022-08-21T17:03:58;26.40;70.50
11280;DHT22;5696;50.928;6.960;2022-08-21T17:06:23;26.40;70.60
11280;DHT22;5696;50.928;6.960;2022-08-21T17:08:50;26.20;71.50
11280;DHT22;5696;50.928;6.960;2022-08-21T17:11:31;26.30;71.60
11280;DHT22;5696;50.928;6.960;2022-08-21T17:13:59;26.00;72.70
11280;DHT22;5696;50.928;6.960;2022-08-21T17:16:25;25.90;73.30
11280;DHT22;5696;50.928;6.960;2022-08-21T17:18:51;25.80;74.40
11280;DHT22;5696;50.928;6.960;2022-08-21T17:21:17;25.70;75.10
11280;DHT22;5696;50.928;6.960;2022-08-21T17:23:44;25.60;75.50
11280;DHT22;5696;50.928;6.960;2022-08-21T17:26:11;25.50;75.60
11280;DHT22;5696;50.928;6.960;2022-08-21T17:28:37;25.40;76.10
11280;DHT22;5696;50.928;6.960;2022-08-21T17:31:06;25.30;76.20
11280;DHT22;5696;50.928;6.960;2022-08-21T17:33:38;25.30;76.50
11280;DHT22;5696;50.928;6.960;2022-08-21T17:36:07;25.30;77.10
11280;DHT22;5696;50.928;6.960;2022-08-21T17:38:33;25.30;77.20
11280;DHT22;5696;50.928;6.960;2022-08-21T17:41:00;25.30;77.00
11280;DHT22;5696;50.928;6.960;2022-08-21T17:43:26;25.20;77.10
11280;DHT22;5696;50.928;6.960;2022-08-21T17:45:52;25.20;77.70
11280;DHT22;5696;50.928;6.960;2022-08-21T17:48:18;25.10;77.40
11280;DHT22;5696;50.928;6.960;2022-08-21T17:50:43;25.00;77.10
11280;DHT22;5696;50.928;6.960;2022-08-21T17:53:09;25.00;77.60
11280;DHT22;5696;50.928;6.960;2022-08-21T17:55:35;24.80;78.10
11280;DHT22;5696;50.928;6.960;2022-08-21T17:58:01;24.80;77.70
11280;DHT22;5696;50.928;6.960;2022-08-21T18:00:30;24.70;77.30
11280;DHT22;5696;50.928;6.960;2022-08-21T18:03:02;24.50;77.70
11280;DHT22;5696;50.928;6.960;2022-08-21T18:05:30;24.40;77.80
11280;DHT22;5696;50.928;6.960;2022-08-21T18:07:56;24.30;78.10
11280;DHT22;5696;50.928;6.960;2022-08-21T18:10:22;24.20;78.30
11280;DHT22;5696;50.928;6.960;2022-08-21T18:12:48;24.20;79.00
11280;DHT22;5696;50.928;6.960;2022-08-21T18:15:16;24.10;78.50
11280;DHT22;5696;50.928;6.960;2022-08-21T18:17:46;24.00;78.50
11280;DHT22;5696;50.928;6.960;2022-08-21T18:20:13;23.90;78.20
11280;DHT22;5696;50.928;6.960;2022-08-21T18:22:48;23.90;78.80
11280;DHT22;5696;50.928;6.960;2022-08-21T18:25:15;23.80;79.10
11280;DHT22;5696;50.928;6.960;2022-08-21T18:27:42;23.70;79.00
11280;DHT22;5696;50.928;6.960;2022-08-21T18:30:15;23.70;79.10
11280;DHT22;5696;50.928;6.960;2022-08-21T18:32:41;23.80;78.80
11280;DHT22;5696;50.928;6.960;2022-08-21T18:35:08;23.80;79.30
11280;DHT22;5696;50.928;6.960;2022-08-21T18:37:34;23.70;79.00
11280;DHT22;5696;50.928;6.960;2022-08-21T18:40:01;23.60;79.70
11280;DHT22;5696;50.928;6.960;2022-08-21T18:42:27;23.60;80.40
11280;DHT22;5696;50.928;6.960;2022-08-21T18:44:58;23.50;80.70
11280;DHT22;5696;50.928;6.960;2022-08-21T18:47:35;23.40;81.00
11280;DHT22;5696;50.928;6.960;2022-08-21T18:50:06;23.40;80.40
11280;DHT22;5696;50.928;6.960;2022-08-21T18:52:32;23.50;80.70
11280;DHT22;5696;50.928;6.960;2022-08-21T18:54:58;23.40;81.00
11280;DHT22;5696;50.928;6.960;2022-08-21T18:57:26;23.40;81.20
11280;DHT22;5696;50.928;6.960;2022-08-21T18:59:52;23.40;81.20
11280;DHT22;5696;50.928;6.960;2022-08-21T19:02:18;23.30;81.80
11280;DHT22;5696;50.928;6.960;2022-08-21T19:04:44;23.40;81.50
11280;DHT22;5696;50.928;6.960;2022-08-21T19:07:12;23.30;81.90
11280;DHT22;5696;50.928;6.960;2022-08-21T19:09:38;23.30;82.50
11280;DHT22;5696;50.928;6.960;2022-08-21T19:12:04;23.30;82.40
11280;DHT22;5696;50.928;6.960;2022-08-21T19:14:30;23.30;83.00
11280;DHT22;5696;50.928;6.960;2022-08-21T19:16:56;23.20;83.10
11280;DHT22;5696;50.928;6.960;2022-08-21T19:19:22;23.20;84.20
11280;DHT22;5696;50.928;6.960;2022-08-21T19:21:47;23.10;84.00
11280;DHT22;5696;50.928;6.960;2022-08-21T19:24:13;23.10;84.40
11280;DHT22;5696;50.928;6.960;2022-08-21T19:26:39;23.00;84.70
11280;DHT22;5696;50.928;6.960;2022-08-21T19:29:08;23.10;84.80
11280;DHT22;5696;50.928;6.960;2022-08-21T19:31:40;23.10;85.20
11280;DHT22;5696;50.928;6.960;2022-08-21T19:34:18;23.00;85.60
11280;DHT22;5696;50.928;6.960;2022-08-21T19:36:45;23.00;86.10
11280;DHT22;5696;50.928;6.960;2022-08-21T19:39:11;22.90;86.40
11280;DHT22;5696;50.928;6.960;2022-08-21T19:41:40;22.90;86.60
11280;DHT22;5696;50.928;6.960;2022-08-21T19:44:08;23.00;86.90
11280;DHT22;5696;50.928;6.960;2022-08-21T19:46:37;22.90;87.00
11280;DHT22;5696;50.928;6.960;2022-08-21T19:49:05;22.90;87.30
11280;DHT22;5696;50.928;6.960;2022-08-21T19:51:34;22.90;87.40
11280;DHT22;5696;50.928;6.960;2022-08-21T19:54:00;22.90;87.70
11280;DHT22;5696;50.928;6.960;2022-08-21T19:56:28;22.90;87.80
11280;DHT22;5696;50.928;6.960;2022-08-21T19:58:56;22.80;88.30
11280;DHT22;5696;50.928;6.960;2022-08-21T20:01:24;22.80;88.90
11280;DHT22;5696;50.928;6.960;2022-08-21T20:03:51;22.70;89.20
11280;DHT22;5696;50.928;6.960;2022-08-21T20:06:17;22.70;89.40
11280;DHT22;5696;50.928;6.960;2022-08-21T20:08:44;22.80;89.00
11280;DHT22;5696;50.928;6.960;2022-08-21T20:11:11;22.80;88.80
11280;DHT22;5696;50.928;6.960;2022-08-21T20:13:37;22.80;89.20
11280;DHT22;5696;50.928;6.960;2022-08-21T20:16:05;22.70;89.50
11280;DHT22;5696;50.928;6.960;2022-08-21T20:18:31;22.70;89.90
11280;DHT22;5696;50.928;6.960;2022-08-21T20:20:58;22.70;90.00
11280;DHT22;5696;50.928;6.960;2022-08-21T20:23:23;22.60;90.20
11280;DHT22;5696;50.928;6.960;2022-08-21T20:25:49;22.70;90.00
11280;DHT22;5696;50.928;6.960;2022-08-21T20:28:16;22.80;90.00
11280;DHT22;5696;50.928;6.960;2022-08-21T20:30:42;22.70;90.10
11280;DHT22;5696;50.928;6.960;2022-08-21T20:33:08;22.70;90.10
11280;DHT22;5696;50.928;6.960;2022-08-21T20:35:34;22.70;90.20
11280;DHT22;5696;50.928;6.960;2022-08-21T20:38:00;22.70;90.20
11280;DHT22;5696;50.928;6.960;2022-08-21T20:40:26;22.80;90.30
11280;DHT22;5696;50.928;6.960;2022-08-21T20:42:53;22.80;90.10
11280;DHT22;5696;50.928;6.960;2022-08-21T20:45:39;22.70;90.40
11280;DHT22;5696;50.928;6.960;2022-08-21T20:48:21;22.70;90.50
11280;DHT22;5696;50.928;6.960;2022-08-21T20:50:51;22.60;90.50
11280;DHT22;5696;50.928;6.960;2022-08-21T20:56:42;22.60;91.10
11280;DHT22;5696;50.928;6.960;2022-08-21T21:02:18;22.60;90.70
11280;DHT22;5696;50.928;6.960;2022-08-21T21:07:32;22.60;91.10
11280;DHT22;5696;50.928;6.960;2022-08-21T21:10:02;22.50;91.20
11280;DHT22;5696;50.928;6.960;2022-08-21T21:12:35;22.50;91.00
11280;DHT22;5696;50.928;6.960;2022-08-21T21:15:10;22.50;91.00
11280;DHT22;5696;50.928;6.960;2022-08-21T21:17:45;22.50;91.20
11280;DHT22;5696;50.928;6.960;2022-08-21T21:20:19;22.50;91.30
11280;DHT22;5696;50.928;6.960;2022-08-21T21:22:53;22.60;91.10
11280;DHT22;5696;50.928;6.960;2022-08-21T21:28:06;22.40;91.60
11280;DHT22;5696;50.928;6.960;2022-08-21T21:30:40;22.40;91.70
11280;DHT22;5696;50.928;6.960;2022-08-21T21:33:07;22.40;91.80
11280;DHT22;5696;50.928;6.960;2022-08-21T21:35:42;22.30;92.00
11280;DHT22;5696;50.928;6.960;2022-08-21T21:40:54;22.30;92.10
11280;DHT22;5696;50.928;6.960;2022-08-21T21:49:08;22.40;92.10
